Time;durP1;ratioP1;P1;durP2;ratioP2;P2;SDS_P1;SDS_P2;PMS_P1;PMS_P2;Temp;Humidity;BMP_temperature;BMP_pressure;BME280_temperature;BME280_humidity;BME280_pressure;Samples;Min_cycle;Max_cycle;Signal;HPM_P1;HPM_P2
2022/04/05 00:00:10;;;;;;;15.77;11.53;;;;;;;;;;5011382;28;20408;-47
2022/04/05 00:02:36;;;;;;;18.80;12.00;;;;;;;;;;5022666;28;20426;-47
2022/04/05 00:05:02;;;;;;;16.07;11.67;;;;;;;;;;5031412;28;20408;-48
2022/04/05 00:07:28;;;;;;;18.23;11.20;;;;;;;;;;5046564;28;21139;-47
2022/04/05 00:09:54;;;;;;;19.00;11.60;;;;;;;;;;5031187;28;20404;-47
2022/04/05 00:12:22;;;;;;;16.40;11.03;;;;;;;;;;5031146;28;20867;-47
2022/04/05 00:14:48;;;;;;;19.20;12.13;;;;;;;;;;5034620;28;20919;-48
2022/04/05 00:17:15;;;;;;;19.70;12.50;;;;;;;;;;5034938;28;20886;-47
2022/04/05 00:19:40;;;;;;;17.37;11.10;;;;;;;;;;5034709;28;20403;-47
2022/04/05 00:22:08;;;;;;;16.00;10.77;;;;;;;;;;5034843;28;20421;-47
2022/04/05 00:24:34;;;;;;;16.40;10.63;;;;;;;;;;5034706;28;20434;-47
2022/04/05 00:27:00;;;;;;;22.27;11.00;;;;;;;;;;5034695;28;20414;-47
2022/04/05 00:29:26;;;;;;;25.40;13.20;;;;;;;;;;5034449;28;20399;-47
2022/04/05 00:31:52;;;;;;;18.50;10.83;;;;;;;;;;5034673;28;20434;-47
2022/04/05 00:34:18;;;;;;;19.40;11.40;;;;;;;;;;5034862;28;20471;-47
2022/04/05 00:36:44;;;;;;;19.00;11.03;;;;;;;;;;5034614;28;20478;-47
2022/04/05 00:39:10;;;;;;;18.70;10.50;;;;;;;;;;5034445;28;20401;-47
2022/04/05 00:41:40;;;;;;;19.10;11.60;;;;;;;;;;5034426;28;20400;-47
2022/04/05 00:44:06;;;;;;;19.30;12.40;;;;;;;;;;5033272;28;20982;-47
2022/04/05 00:46:32;;;;;;;16.90;11.10;;;;;;;;;;5045955;28;20445;-48
2022/04/05 00:49:00;;;;;;;18.20;11.50;;;;;;;;;;5037036;28;20479;-48
2022/04/05 00:51:26;;;;;;;22.77;10.67;;;;;;;;;;5033925;28;20831;-47
2022/04/05 00:53:54;;;;;;;18.23;11.70;;;;;;;;;;5033944;28;20470;-47
2022/04/05 00:56:20;;;;;;;16.93;10.40;;;;;;;;;;5034157;28;20418;-48
2022/04/05 00:58:52;;;;;;;20.27;11.90;;;;;;;;;;5034003;28;20405;-47
2022/04/05 01:01:18;;;;;;;20.40;11.23;;;;;;;;;;5033524;28;20419;-47
2022/04/05 01:03:48;;;;;;;19.73;10.97;;;;;;;;;;5033720;28;20974;-47
2022/04/05 01:06:15;;;;;;;21.07;10.93;;;;;;;;;;5034576;28;20469;-48
2022/04/05 01:08:42;;;;;;;18.20;11.47;;;;;;;;;;5034386;28;20447;-48
2022/04/05 01:11:08;;;;;;;21.60;13.10;;;;;;;;;;5033931;28;20411;-48
2022/04/05 01:13:34;;;;;;;24.47;13.00;;;;;;;;;;5034451;28;20427;-50
2022/04/05 01:16:00;;;;;;;39.33;15.23;;;;;;;;;;5034639;28;20816;-49
2022/04/05 01:18:26;;;;;;;25.23;13.80;;;;;;;;;;5034791;28;20896;-51
2022/04/05 01:20:52;;;;;;;22.73;14.00;;;;;;;;;;5033835;28;20455;-48
2022/04/05 01:23:22;;;;;;;26.90;13.23;;;;;;;;;;5034308;28;20939;-49
2022/04/05 01:25:48;;;;;;;23.90;12.50;;;;;;;;;;5033712;28;20424;-48
2022/04/05 01:28:14;;;;;;;21.00;11.83;;;;;;;;;;5034469;28;20454;-50
2022/04/05 01:30:40;;;;;;;22.17;11.73;;;;;;;;;;5034119;28;20413;-48
2022/04/05 01:33:07;;;;;;;20.10;11.63;;;;;;;;;;5034194;28;20705;-50
2022/04/05 01:35:34;;;;;;;26.50;12.23;;;;;;;;;;5034328;28;20419;-49
2022/04/05 01:38:01;;;;;;;21.47;11.20;;;;;;;;;;5034572;28;20404;-49
2022/04/05 01:40:27;;;;;;;21.10;11.83;;;;;;;;;;5034013;28;20945;-49
2022/04/05 01:42:53;;;;;;;28.77;12.60;;;;;;;;;;5034243;28;20504;-48
2022/04/05 01:45:18;;;;;;;22.87;11.37;;;;;;;;;;5034030;28;20435;-49
2022/04/05 01:47:44;;;;;;;25.30;12.70;;;;;;;;;;5034216;28;20472;-48
2022/04/05 01:50:10;;;;;;;25.00;12.87;;;;;;;;;;5034190;28;20419;-50
2022/04/05 01:52:37;;;;;;;27.80;12.93;;;;;;;;;;5033918;28;20450;-48
2022/04/05 01:55:04;;;;;;;28.10;13.27;;;;;;;;;;5033883;28;20421;-50
2022/04/05 01:57:30;;;;;;;27.13;12.27;;;;;;;;;;5033390;28;20504;-48
2022/04/05 01:59:56;;;;;;;29.17;12.53;;;;;;;;;;5033382;28;20480;-49
2022/04/05 02:02:22;;;;;;;30.43;13.87;;;;;;;;;;5033377;28;20882;-48
2022/04/05 02:04:48;;;;;;;30.83;12.77;;;;;;;;;;5033186;28;20413;-48
2022/04/05 02:07:15;;;;;;;68.93;16.63;;;;;;;;;;5033058;28;20534;-50
2022/04/05 02:09:42;;;;;;;39.10;13.60;;;;;;;;;;5033183;28;20429;-49
2022/04/05 02:12:09;;;;;;;15.43;8.77;;;;;;;;;;5033245;28;20411;-50
2022/04/05 02:14:35;;;;;;;11.50;7.07;;;;;;;;;;5032860;28;20941;-48
2022/04/05 02:17:02;;;;;;;12.77;7.33;;;;;;;;;;5033188;28;20404;-48
2022/04/05 02:19:28;;;;;;;22.63;7.40;;;;;;;;;;5032711;28;20403;-49
2022/04/05 02:21:55;;;;;;;10.93;6.57;;;;;;;;;;5032734;28;20453;-50
2022/04/05 02:24:22;;;;;;;59.37;8.20;;;;;;;;;;5032797;28;20468;-49
2022/04/05 02:26:48;;;;;;;7.10;5.10;;;;;;;;;;5033100;28;20486;-49
2022/04/05 02:29:14;;;;;;;7.50;4.60;;;;;;;;;;5032898;28;20407;-48
2022/04/05 02:31:41;;;;;;;10.87;4.17;;;;;;;;;;5032893;28;20410;-46
2022/04/05 02:34:08;;;;;;;6.80;5.10;;;;;;;;;;5032738;28;20427;-51
2022/04/05 02:36:33;;;;;;;5.53;4.50;;;;;;;;;;5032821;28;20408;-49
2022/04/05 02:39:00;;;;;;;44.77;7.03;;;;;;;;;;5032854;28;20459;-49
2022/04/05 02:41:26;;;;;;;5.30;4.63;;;;;;;;;;5032520;28;20440;-49
2022/04/05 02:43:52;;;;;;;7.77;4.80;;;;;;;;;;5032692;28;20973;-50
2022/04/05 02:46:18;;;;;;;6.53;4.47;;;;;;;;;;5032784;28;20432;-49
2022/04/05 02:48:46;;;;;;;5.00;4.50;;;;;;;;;;5032578;28;20461;-50
2022/04/05 02:51:12;;;;;;;5.03;4.10;;;;;;;;;;5032296;28;20408;-50
2022/04/05 02:53:38;;;;;;;6.07;5.00;;;;;;;;;;5032381;28;20936;-50
2022/04/05 02:56:04;;;;;;;5.10;4.60;;;;;;;;;;5032559;28;20402;-49
2022/04/05 02:58:30;;;;;;;8.57;5.03;;;;;;;;;;5032414;28;20402;-50
2022/04/05 03:00:56;;;;;;;21.83;6.53;;;;;;;;;;5031813;28;20476;-50
2022/04/05 03:03:22;;;;;;;28.70;7.10;;;;;;;;;;5032175;28;20441;-49
2022/04/05 03:05:48;;;;;;;48.93;7.53;;;;;;;;;;5032045;28;20403;-49
2022/04/05 03:08:17;;;;;;;89.43;10.50;;;;;;;;;;5032091;28;20621;-50
2022/04/05 03:10:43;;;;;;;61.70;8.40;;;;;;;;;;5032022;28;20402;-49
2022/04/05 03:13:10;;;;;;;50.63;7.77;;;;;;;;;;5031145;28;20414;-50
2022/04/05 03:15:36;;;;;;;23.20;6.37;;;;;;;;;;5030746;28;20905;-48
2022/04/05 03:18:02;;;;;;;29.00;6.63;;;;;;;;;;5030953;28;20415;-50
2022/04/05 03:20:28;;;;;;;43.90;7.80;;;;;;;;;;5031722;28;20411;-50
2022/04/05 03:22:55;;;;;;;149.93;17.53;;;;;;;;;;5032094;28;20928;-51
2022/04/05 03:25:22;;;;;;;104.37;12.80;;;;;;;;;;5032000;28;20409;-48
2022/04/05 03:27:49;;;;;;;157.37;11.17;;;;;;;;;;5031717;28;20451;-51
2022/04/05 03:30:16;;;;;;;40.00;8.00;;;;;;;;;;5031637;28;20441;-48
2022/04/05 03:32:42;;;;;;;33.33;7.20;;;;;;;;;;5031416;28;20833;-49
2022/04/05 03:35:09;;;;;;;123.70;14.07;;;;;;;;;;5031718;28;20430;-48
2022/04/05 03:37:35;;;;;;;53.57;10.37;;;;;;;;;;5031755;28;20409;-50
2022/04/05 03:40:01;;;;;;;85.87;10.63;;;;;;;;;;5031538;28;20453;-48
2022/04/05 03:42:27;;;;;;;37.37;8.23;;;;;;;;;;5031520;28;20413;-49
2022/04/05 03:44:53;;;;;;;21.90;7.47;;;;;;;;;;5031613;28;20910;-49
2022/04/05 03:47:19;;;;;;;16.40;8.00;;;;;;;;;;5031479;28;20495;-48
2022/04/05 03:49:46;;;;;;;16.10;7.50;;;;;;;;;;5034873;28;20480;-49
2022/04/05 03:52:11;;;;;;;13.20;6.50;;;;;;;;;;5035438;28;20406;-50
2022/04/05 03:54:39;;;;;;;17.90;7.10;;;;;;;;;;5035491;28;20408;-48
2022/04/05 03:57:07;;;;;;;13.47;6.80;;;;;;;;;;5035450;28;20763;-48
2022/04/05 03:59:33;;;;;;;15.87;7.30;;;;;;;;;;5035120;28;20453;-49
2022/04/05 04:01:59;;;;;;;14.13;7.30;;;;;;;;;;5035169;28;20407;-48
2022/04/05 04:04:25;;;;;;;13.53;6.70;;;;;;;;;;5035226;28;20948;-51
2022/04/05 04:06:51;;;;;;;16.03;6.60;;;;;;;;;;5035206;28;20918;-50
2022/04/05 04:09:17;;;;;;;10.37;6.00;;;;;;;;;;5035076;28;20915;-48
2022/04/05 04:11:44;;;;;;;8.53;5.43;;;;;;;;;;5035061;28;20897;-50
2022/04/05 04:14:11;;;;;;;11.03;5.97;;;;;;;;;;5035088;28;20419;-49
2022/04/05 04:16:37;;;;;;;13.40;6.50;;;;;;;;;;5034932;28;20824;-48
2022/04/05 04:19:03;;;;;;;17.33;6.30;;;;;;;;;;5035208;28;20409;-49
2022/04/05 04:21:29;;;;;;;15.17;6.90;;;;;;;;;;5034779;28;20431;-50
2022/04/05 04:23:55;;;;;;;15.80;8.50;;;;;;;;;;5034884;28;20465;-50
2022/04/05 04:26:21;;;;;;;18.67;9.10;;;;;;;;;;5034907;28;20431;-50
2022/04/05 04:28:50;;;;;;;25.73;9.10;;;;;;;;;;5034715;28;20521;-49
2022/04/05 04:31:16;;;;;;;15.50;9.10;;;;;;;;;;5034489;28;20461;-50
2022/04/05 04:33:42;;;;;;;17.40;9.77;;;;;;;;;;5034650;28;20496;-50
2022/04/05 04:36:08;;;;;;;39.40;11.77;;;;;;;;;;5034660;28;20399;-49
2022/04/05 04:38:34;;;;;;;28.53;12.23;;;;;;;;;;5034661;28;20512;-48
2022/04/05 04:41:00;;;;;;;24.13;12.50;;;;;;;;;;5034498;28;20464;-48
2022/04/05 04:43:27;;;;;;;21.33;11.00;;;;;;;;;;5034421;28;20437;-51
2022/04/05 04:45:54;;;;;;;30.20;13.17;;;;;;;;;;5034805;28;20488;-51
2022/04/05 04:48:20;;;;;;;26.63;14.87;;;;;;;;;;5034455;28;20989;-51
2022/04/05 04:50:47;;;;;;;24.47;14.70;;;;;;;;;;5034127;28;20420;-50
2022/04/05 04:53:13;;;;;;;31.23;16.00;;;;;;;;;;5034252;28;20428;-50
2022/04/05 04:55:39;;;;;;;37.60;15.40;;;;;;;;;;5034291;28;20961;-49
2022/04/05 04:58:05;;;;;;;30.30;14.83;;;;;;;;;;5034218;28;20415;-51
2022/04/05 05:00:31;;;;;;;19.03;14.63;;;;;;;;;;5032858;28;20771;-50
2022/04/05 05:02:57;;;;;;;35.83;15.60;;;;;;;;;;5034050;28;20426;-51
2022/04/05 05:05:23;;;;;;;24.33;15.17;;;;;;;;;;5034223;28;20406;-50
2022/04/05 05:07:51;;;;;;;27.67;16.00;;;;;;;;;;5034014;28;20451;-50
2022/04/05 05:10:18;;;;;;;29.97;16.20;;;;;;;;;;5033846;28;20774;-50
2022/04/05 05:12:44;;;;;;;27.80;16.43;;;;;;;;;;5033849;28;20415;-51
2022/04/05 05:15:13;;;;;;;29.80;17.13;;;;;;;;;;5033927;28;20773;-50
2022/04/05 05:17:39;;;;;;;33.03;17.63;;;;;;;;;;5034001;28;20400;-50
2022/04/05 05:20:06;;;;;;;34.37;16.87;;;;;;;;;;5033660;28;20899;-50
2022/04/05 05:22:32;;;;;;;67.60;18.50;;;;;;;;;;5033817;28;20415;-51
2022/04/05 05:24:58;;;;;;;38.07;18.40;;;;;;;;;;5033803;28;20548;-51
2022/04/05 05:27:28;;;;;;;40.20;19.70;;;;;;;;;;5033607;28;20557;-51
2022/04/05 05:29:54;;;;;;;32.13;18.40;;;;;;;;;;5032848;28;20395;-51
2022/04/05 05:32:20;;;;;;;43.83;20.20;;;;;;;;;;5033172;28;20905;-48
2022/04/05 05:34:46;;;;;;;53.03;20.03;;;;;;;;;;5033090;28;20403;-50
2022/04/05 05:37:12;;;;;;;38.63;20.20;;;;;;;;;;5032981;28;20470;-50
2022/04/05 05:39:38;;;;;;;38.20;20.93;;;;;;;;;;5032632;28;20401;-49
2022/04/05 05:42:05;;;;;;;50.47;22.20;;;;;;;;;;5032861;28;20412;-49
2022/04/05 05:44:32;;;;;;;43.67;21.70;;;;;;;;;;5032919;28;20423;-51
2022/04/05 05:46:58;;;;;;;37.30;20.63;;;;;;;;;;5033294;28;20400;-50
2022/04/05 05:49:24;;;;;;;73.50;23.53;;;;;;;;;;5032966;28;20785;-51
2022/04/05 05:51:50;;;;;;;68.40;22.80;;;;;;;;;;5033195;28;20461;-51
2022/04/05 05:54:16;;;;;;;46.63;20.90;;;;;;;;;;5033239;28;20929;-48
2022/04/05 05:56:42;;;;;;;41.83;20.70;;;;;;;;;;5027301;28;20782;-47
2022/04/05 05:59:08;;;;;;;70.57;21.90;;;;;;;;;;5033251;28;20412;-47
2022/04/05 06:01:34;;;;;;;45.17;20.57;;;;;;;;;;5032913;28;20419;-46
2022/04/05 06:04:00;;;;;;;59.57;21.97;;;;;;;;;;5031542;28;20438;-46
2022/04/05 06:06:28;;;;;;;33.93;19.27;;;;;;;;;;5034437;28;20412;-48
2022/04/05 06:08:55;;;;;;;39.30;20.60;;;;;;;;;;5032747;28;20513;-48
2022/04/05 06:11:21;;;;;;;38.77;18.00;;;;;;;;;;5032714;28;20770;-48
2022/04/05 06:13:48;;;;;;;33.60;17.00;;;;;;;;;;5033215;28;20425;-47
2022/04/05 06:16:14;;;;;;;33.20;17.30;;;;;;;;;;5032906;28;20400;-49
2022/04/05 06:18:42;;;;;;;33.07;17.03;;;;;;;;;;5032680;28;20906;-48
2022/04/05 06:21:08;;;;;;;34.20;17.53;;;;;;;;;;5032364;28;20401;-48
2022/04/05 06:23:34;;;;;;;109.23;19.77;;;;;;;;;;5032492;28;20435;-47
2022/04/05 06:26:00;;;;;;;32.23;16.20;;;;;;;;;;5032623;28;20496;-47
2022/04/05 06:28:26;;;;;;;224.87;25.83;;;;;;;;;;5032490;28;20554;-48
2022/04/05 06:30:52;;;;;;;35.67;16.10;;;;;;;;;;5032465;28;20414;-48
2022/04/05 06:33:19;;;;;;;33.13;14.30;;;;;;;;;;5032424;28;20434;-47
2022/04/05 06:35:46;;;;;;;37.33;16.10;;;;;;;;;;5032415;28;20447;-48
2022/04/05 06:38:13;;;;;;;39.10;18.63;;;;;;;;;;5032522;28;20415;-48
2022/04/05 06:40:41;;;;;;;41.33;16.87;;;;;;;;;;5032136;28;20426;-48
2022/04/05 06:43:07;;;;;;;36.87;17.10;;;;;;;;;;5032039;28;20435;-48
2022/04/05 06:45:33;;;;;;;40.63;16.57;;;;;;;;;;5032314;28;20416;-48
2022/04/05 06:47:59;;;;;;;34.33;16.30;;;;;;;;;;5032071;28;20457;-48
2022/04/05 06:50:25;;;;;;;36.17;17.10;;;;;;;;;;5031780;28;20416;-48
2022/04/05 06:52:52;;;;;;;33.30;16.20;;;;;;;;;;5032123;28;20482;-48
2022/04/05 06:55:18;;;;;;;25.23;12.63;;;;;;;;;;5032162;28;20398;-47
2022/04/05 06:57:44;;;;;;;29.27;13.63;;;;;;;;;;5032304;28;20768;-48
2022/04/05 07:00:11;;;;;;;28.33;14.57;;;;;;;;;;5031773;28;20409;-48
2022/04/05 07:02:38;;;;;;;34.40;14.83;;;;;;;;;;5031876;28;20426;-48
2022/04/05 07:05:04;;;;;;;28.60;13.70;;;;;;;;;;5032491;28;20777;-48
2022/04/05 07:07:31;;;;;;;26.27;13.90;;;;;;;;;;5031817;28;20552;-49
2022/04/05 07:09:57;;;;;;;27.93;13.70;;;;;;;;;;5031688;28;20429;-48
2022/04/05 07:12:25;;;;;;;34.50;15.80;;;;;;;;;;5031809;28;20436;-48
2022/04/05 07:14:51;;;;;;;41.67;18.33;;;;;;;;;;5031799;28;20412;-48
2022/04/05 07:17:18;;;;;;;44.77;18.53;;;;;;;;;;5031788;28;20409;-49
2022/04/05 07:19:44;;;;;;;45.47;17.63;;;;;;;;;;5031559;28;20410;-49
2022/04/05 07:22:10;;;;;;;48.13;16.53;;;;;;;;;;5031603;28;20918;-48
2022/04/05 07:24:36;;;;;;;42.47;20.47;;;;;;;;;;5031430;28;20934;-48
2022/04/05 07:27:02;;;;;;;47.03;20.57;;;;;;;;;;5031603;28;20402;-49
2022/04/05 07:29:29;;;;;;;37.87;19.70;;;;;;;;;;5031463;28;20768;-48
2022/04/05 07:31:55;;;;;;;43.70;20.60;;;;;;;;;;5031528;28;20404;-48
2022/04/05 07:34:20;;;;;;;47.83;22.17;;;;;;;;;;5031781;28;20427;-48
2022/04/05 07:36:47;;;;;;;37.70;20.70;;;;;;;;;;5031670;28;20405;-48
2022/04/05 07:39:12;;;;;;;39.70;21.97;;;;;;;;;;5031694;28;20445;-49
2022/04/05 07:41:38;;;;;;;47.13;22.40;;;;;;;;;;5031445;28;20495;-48
2022/04/05 07:44:05;;;;;;;53.23;24.27;;;;;;;;;;5031342;28;20430;-48
2022/04/05 07:46:31;;;;;;;50.67;25.23;;;;;;;;;;5031506;28;20401;-48
2022/04/05 07:48:56;;;;;;;51.97;25.27;;;;;;;;;;5030048;28;20480;-48
2022/04/05 07:51:22;;;;;;;50.90;24.20;;;;;;;;;;5031490;28;20485;-48
2022/04/05 07:53:48;;;;;;;50.07;25.37;;;;;;;;;;5031410;28;20426;-48
2022/04/05 07:56:14;;;;;;;49.70;24.13;;;;;;;;;;5031479;28;20407;-49
2022/04/05 07:58:42;;;;;;;56.53;27.70;;;;;;;;;;5031431;28;20417;-48
2022/04/05 08:01:09;;;;;;;51.37;25.33;;;;;;;;;;5031095;28;20843;-48
2022/04/05 08:03:35;;;;;;;44.13;24.10;;;;;;;;;;5031329;28;20464;-48
2022/04/05 08:06:01;;;;;;;46.63;23.40;;;;;;;;;;5031301;28;20406;-48
2022/04/05 08:08:28;;;;;;;49.23;24.67;;;;;;;;;;5031202;28;20460;-48
2022/04/05 08:10:54;;;;;;;55.43;25.10;;;;;;;;;;5031091;28;20434;-48
2022/04/05 08:13:20;;;;;;;55.03;26.17;;;;;;;;;;5031109;28;20453;-48
2022/04/05 08:15:47;;;;;;;54.47;25.93;;;;;;;;;;5031235;28;20840;-48
2022/04/05 08:18:13;;;;;;;51.80;25.70;;;;;;;;;;5031240;28;20408;-49
2022/04/05 08:20:42;;;;;;;58.20;26.57;;;;;;;;;;5031240;28;20410;-48
2022/04/05 08:23:10;;;;;;;52.30;23.57;;;;;;;;;;5031065;28;20482;-48
2022/04/05 08:25:37;;;;;;;47.70;23.97;;;;;;;;;;5031118;28;20405;-48
2022/04/05 08:28:03;;;;;;;50.00;23.00;;;;;;;;;;5031084;28;20449;-49
2022/04/05 08:30:30;;;;;;;51.37;24.30;;;;;;;;;;5031336;28;20446;-48
2022/04/05 08:32:56;;;;;;;49.90;23.40;;;;;;;;;;5030903;28;20454;-49
2022/04/05 08:35:23;;;;;;;49.63;24.30;;;;;;;;;;5034139;28;20437;-49
2022/04/05 08:37:50;;;;;;;40.23;21.80;;;;;;;;;;5034669;28;20409;-48
2022/04/05 08:40:18;;;;;;;49.80;21.70;;;;;;;;;;5034371;28;20436;-48
2022/04/05 08:42:45;;;;;;;38.37;20.53;;;;;;;;;;5034375;28;20422;-48
2022/04/05 08:45:12;;;;;;;39.10;21.23;;;;;;;;;;5034289;28;20505;-47
2022/04/05 08:47:46;;;;;;;34.47;20.60;;;;;;;;;;5031920;28;20465;-48
2022/04/05 08:50:13;;;;;;;43.00;21.37;;;;;;;;;;5033840;28;20459;-48
2022/04/05 08:52:43;;;;;;;43.00;21.60;;;;;;;;;;5046649;28;20543;-48
2022/04/05 08:55:09;;;;;;;45.10;23.10;;;;;;;;;;5034024;28;20509;-48
2022/04/05 08:57:35;;;;;;;51.37;24.47;;;;;;;;;;5032431;28;20427;-45
2022/04/05 09:00:01;;;;;;;40.97;23.00;;;;;;;;;;5036698;28;20415;-46
2022/04/05 09:02:28;;;;;;;41.90;23.73;;;;;;;;;;5035665;28;20414;-48
2022/04/05 09:04:54;;;;;;;46.10;23.70;;;;;;;;;;5036452;28;20426;-47
2022/04/05 09:07:21;;;;;;;42.93;24.10;;;;;;;;;;5024477;28;20403;-48
2022/04/05 09:10:06;;;;;;;49.30;22.53;;;;;;;;;;5015353;28;20767;-48
2022/04/05 09:12:39;;;;;;;41.87;22.97;;;;;;;;;;5036056;28;20411;-47
2022/04/05 09:15:18;;;;;;;45.90;23.20;;;;;;;;;;5035402;28;20449;-47
2022/04/05 09:17:45;;;;;;;40.77;23.03;;;;;;;;;;5035838;28;20952;-48
2022/04/05 09:20:12;;;;;;;36.77;21.40;;;;;;;;;;5030963;28;20767;-48
2022/04/05 09:22:39;;;;;;;44.07;22.87;;;;;;;;;;5046377;28;20516;-48
2022/04/05 09:25:06;;;;;;;44.00;23.50;;;;;;;;;;5032492;28;20467;-47
2022/04/05 09:27:49;;;;;;;36.80;21.27;;;;;;;;;;5033683;28;20503;-48
2022/04/05 09:30:15;;;;;;;49.83;23.10;;;;;;;;;;5033183;28;20417;-49
2022/04/05 09:32:44;;;;;;;39.67;22.50;;;;;;;;;;5032842;28;20458;-48
2022/04/05 09:35:10;;;;;;;41.60;23.47;;;;;;;;;;5033099;28;20922;-48
2022/04/05 09:37:39;;;;;;;39.07;23.70;;;;;;;;;;5033616;28;20410;-49
2022/04/05 09:40:23;;;;;;;44.30;24.20;;;;;;;;;;5032839;28;20430;-49
2022/04/05 09:42:59;;;;;;;37.67;21.70;;;;;;;;;;5033144;28;20933;-49
2022/04/05 09:45:44;;;;;;;40.23;24.00;;;;;;;;;;5026924;28;20504;-49
2022/04/05 09:48:10;;;;;;;44.33;21.90;;;;;;;;;;5033081;28;20512;-49
2022/04/05 09:50:54;;;;;;;35.27;20.83;;;;;;;;;;5033071;28;20433;-51
2022/04/05 09:53:20;;;;;;;31.13;21.30;;;;;;;;;;5033126;28;20553;-50
2022/04/05 09:55:46;;;;;;;35.27;20.87;;;;;;;;;;5037062;28;20897;-50
2022/04/05 09:58:12;;;;;;;32.87;21.90;;;;;;;;;;5053118;28;20397;-50
2022/04/05 10:00:39;;;;;;;32.27;22.30;;;;;;;;;;5052840;28;20402;-50
2022/04/05 10:03:10;;;;;;;30.13;20.53;;;;;;;;;;5052742;28;20465;-48
2022/04/05 10:05:36;;;;;;;36.53;23.03;;;;;;;;;;5048535;28;20918;-48
2022/04/05 10:08:03;;;;;;;40.20;22.93;;;;;;;;;;5032802;28;20847;-48
2022/04/05 10:10:29;;;;;;;34.83;22.23;;;;;;;;;;5032725;28;20932;-49
2022/04/05 10:12:55;;;;;;;35.33;23.03;;;;;;;;;;5032721;28;20427;-50
2022/04/05 10:15:21;;;;;;;37.07;22.00;;;;;;;;;;5032747;28;20402;-49
2022/04/05 10:17:49;;;;;;;30.40;21.20;;;;;;;;;;5032941;28;20413;-50
2022/04/05 10:20:17;;;;;;;30.03;20.90;;;;;;;;;;5032499;28;20884;-48
2022/04/05 10:22:43;;;;;;;26.80;19.80;;;;;;;;;;5032432;28;20449;-51
2022/04/05 10:25:09;;;;;;;29.00;20.10;;;;;;;;;;5032688;28;20463;-48
2022/04/05 10:27:36;;;;;;;25.30;20.10;;;;;;;;;;5032667;28;20457;-48
2022/04/05 10:30:21;;;;;;;29.93;20.27;;;;;;;;;;5032331;28;20557;-48
2022/04/05 10:32:47;;;;;;;27.03;20.40;;;;;;;;;;5032298;28;20410;-49
2022/04/05 10:35:15;;;;;;;29.37;22.07;;;;;;;;;;5032305;28;20398;-49
2022/04/05 10:37:41;;;;;;;27.47;20.20;;;;;;;;;;5032438;28;20399;-47
2022/04/05 10:40:10;;;;;;;28.60;20.63;;;;;;;;;;5032150;28;20394;-48
2022/04/05 10:42:46;;;;;;;26.93;19.97;;;;;;;;;;5032221;28;20401;-48
2022/04/05 10:45:12;;;;;;;27.13;20.17;;;;;;;;;;5032271;28;20927;-47
2022/04/05 10:47:57;;;;;;;29.00;20.67;;;;;;;;;;5032148;28;20474;-47
2022/04/05 10:50:23;;;;;;;24.50;20.37;;;;;;;;;;5031829;28;20446;-48
2022/04/05 10:53:09;;;;;;;26.70;20.07;;;;;;;;;;5032107;28;20415;-48
2022/04/05 10:55:55;;;;;;;23.40;19.20;;;;;;;;;;5035595;28;20448;-47
2022/04/05 10:58:21;;;;;;;24.97;18.60;;;;;;;;;;5050937;28;20950;-47
2022/04/05 11:00:48;;;;;;;27.23;16.70;;;;;;;;;;5051703;28;20480;-47
2022/04/05 11:03:14;;;;;;;20.20;17.43;;;;;;;;;;5051991;28;20444;-48
2022/04/05 11:05:42;;;;;;;18.30;15.90;;;;;;;;;;5052083;28;20433;-47
2022/04/05 11:08:12;;;;;;;18.27;14.60;;;;;;;;;;5051789;28;20450;-49
2022/04/05 11:10:39;;;;;;;17.77;14.67;;;;;;;;;;5049922;28;20409;-49
2022/04/05 11:13:09;;;;;;;16.13;13.73;;;;;;;;;;5050287;28;20437;-48
2022/04/05 11:15:54;;;;;;;16.60;14.73;;;;;;;;;;5051824;28;20940;-48
2022/04/05 11:18:28;;;;;;;13.37;11.97;;;;;;;;;;5051766;28;20408;-48
2022/04/05 11:20:55;;;;;;;16.97;12.27;;;;;;;;;;5047867;28;20413;-48
2022/04/05 11:23:38;;;;;;;18.10;11.37;;;;;;;;;;5031280;28;20441;-47
2022/04/05 11:26:23;;;;;;;12.10;10.90;;;;;;;;;;5031527;28;20429;-49
2022/04/05 11:28:49;;;;;;;16.33;10.87;;;;;;;;;;5019144;28;20458;-49
2022/04/05 11:31:29;;;;;;;13.00;10.70;;;;;;;;;;5031167;28;20781;-48
2022/04/05 11:33:55;;;;;;;18.57;10.53;;;;;;;;;;5030929;28;20467;-49
2022/04/05 11:36:23;;;;;;;16.77;12.07;;;;;;;;;;5031608;28;20404;-49
2022/04/05 11:38:50;;;;;;;12.60;10.97;;;;;;;;;;5031240;28;20498;-48
2022/04/05 11:41:22;;;;;;;13.60;11.30;;;;;;;;;;5031447;28;20408;-48
2022/04/05 11:43:59;;;;;;;13.20;11.50;;;;;;;;;;5031115;28;20439;-49
2022/04/05 11:46:27;;;;;;;13.57;12.17;;;;;;;;;;5030430;28;20440;-47
2022/04/05 11:48:55;;;;;;;11.53;9.33;;;;;;;;;;5031048;28;20461;-47
2022/04/05 11:51:24;;;;;;;13.13;9.83;;;;;;;;;;5031108;28;20422;-48
2022/04/05 11:53:51;;;;;;;10.07;7.50;;;;;;;;;;5031273;28;20434;-47
2022/04/05 11:56:21;;;;;;;13.00;9.50;;;;;;;;;;5031879;28;20803;-47
2022/04/05 11:58:48;;;;;;;10.30;9.27;;;;;;;;;;5031030;28;20430;-46
2022/04/05 12:01:16;;;;;;;13.37;10.50;;;;;;;;;;5030683;28;20452;-47
2022/04/05 12:03:46;;;;;;;13.70;12.30;;;;;;;;;;5030628;28;20439;-47
2022/04/05 12:06:13;;;;;;;14.57;13.03;;;;;;;;;;5030973;28;20976;-47
2022/04/05 12:08:39;;;;;;;16.37;13.47;;;;;;;;;;5031308;28;20453;-48
2022/04/05 12:11:06;;;;;;;15.07;11.87;;;;;;;;;;5031358;28;20481;-48
2022/04/05 12:13:36;;;;;;;14.30;11.50;;;;;;;;;;5034334;28;20422;-47
2022/04/05 12:16:03;;;;;;;12.83;11.60;;;;;;;;;;5035121;28;20399;-47
2022/04/05 12:18:29;;;;;;;11.30;10.10;;;;;;;;;;5035149;28;20405;-48
2022/04/05 12:21:02;;;;;;;12.73;11.30;;;;;;;;;;5034876;28;20487;-47
2022/04/05 12:23:35;;;;;;;12.00;10.80;;;;;;;;;;5034814;28;20428;-47
2022/04/05 12:26:11;;;;;;;12.43;11.13;;;;;;;;;;5034917;28;20464;-48
2022/04/05 12:28:38;;;;;;;12.90;11.33;;;;;;;;;;5024362;28;20465;-47
2022/04/05 12:31:17;;;;;;;13.53;12.13;;;;;;;;;;5014891;28;20770;-47
2022/04/05 12:33:57;;;;;;;15.63;11.27;;;;;;;;;;5014951;28;20419;-48
2022/04/05 12:36:24;;;;;;;12.07;10.87;;;;;;;;;;5015016;28;20413;-49
2022/04/05 12:38:50;;;;;;;15.00;13.10;;;;;;;;;;5015063;28;21019;-47
2022/04/05 12:41:17;;;;;;;20.03;14.30;;;;;;;;;;5014696;28;20423;-48
2022/04/05 12:43:43;;;;;;;15.13;13.07;;;;;;;;;;5014772;28;20793;-46
2022/04/05 12:46:13;;;;;;;14.97;12.90;;;;;;;;;;5014692;28;20411;-46
2022/04/05 12:48:41;;;;;;;16.33;13.93;;;;;;;;;;5014610;28;20446;-49
2022/04/05 12:51:07;;;;;;;18.90;16.03;;;;;;;;;;5014538;28;20764;-48
2022/04/05 12:53:35;;;;;;;20.47;18.17;;;;;;;;;;5014597;28;20455;-48
2022/04/05 12:56:04;;;;;;;17.57;15.77;;;;;;;;;;5028544;28;20921;-49
2022/04/05 12:58:38;;;;;;;15.97;14.27;;;;;;;;;;5054326;28;20895;-50
2022/04/05 13:01:16;;;;;;;14.10;12.70;;;;;;;;;;5054067;28;20434;-47
2022/04/05 13:03:42;;;;;;;15.03;13.63;;;;;;;;;;5048034;28;20432;-46
2022/04/05 13:06:21;;;;;;;15.83;14.23;;;;;;;;;;5034167;28;20922;-46
2022/04/05 13:08:47;;;;;;;15.53;13.57;;;;;;;;;;5033113;28;20475;-49
2022/04/05 13:11:22;;;;;;;17.93;14.37;;;;;;;;;;5033436;28;20498;-48
2022/04/05 13:13:48;;;;;;;18.13;13.73;;;;;;;;;;5033093;28;20525;-48
2022/04/05 13:16:15;;;;;;;14.90;13.50;;;;;;;;;;5033211;28;20554;-49
2022/04/05 13:18:41;;;;;;;15.80;14.20;;;;;;;;;;5031229;28;20840;-49
2022/04/05 13:21:08;;;;;;;13.00;11.80;;;;;;;;;;5027831;28;20518;-49
2022/04/05 13:23:36;;;;;;;13.70;12.10;;;;;;;;;;5032500;28;20757;-49
2022/04/05 13:26:02;;;;;;;13.03;11.83;;;;;;;;;;5032049;28;20405;-50
2022/04/05 13:28:32;;;;;;;15.13;13.40;;;;;;;;;;5032563;28;20471;-48
2022/04/05 13:31:05;;;;;;;16.87;15.10;;;;;;;;;;5032620;28;20524;-49
2022/04/05 13:33:31;;;;;;;17.40;15.63;;;;;;;;;;5033374;28;20933;-49
2022/04/05 13:35:57;;;;;;;17.33;15.63;;;;;;;;;;5033598;28;20408;-49
2022/04/05 13:38:23;;;;;;;15.90;14.40;;;;;;;;;;5033523;28;20962;-50
2022/04/05 13:40:49;;;;;;;17.03;15.33;;;;;;;;;;5033251;28;20808;-49
2022/04/05 13:43:15;;;;;;;17.90;13.73;;;;;;;;;;5033281;28;20486;-49
2022/04/05 13:45:42;;;;;;;14.30;12.87;;;;;;;;;;5033563;28;20412;-50
2022/04/05 13:48:08;;;;;;;10.50;9.60;;;;;;;;;;5033412;28;20473;-49
2022/04/05 13:50:34;;;;;;;11.23;10.23;;;;;;;;;;5033073;28;20777;-49
2022/04/05 13:53:00;;;;;;;9.97;9.10;;;;;;;;;;5033138;28;20428;-49
2022/04/05 13:55:26;;;;;;;10.00;9.10;;;;;;;;;;5035606;28;20428;-48
2022/04/05 13:57:52;;;;;;;11.03;9.93;;;;;;;;;;5053071;28;20495;-49
2022/04/05 14:00:18;;;;;;;12.10;9.60;;;;;;;;;;5052762;28;20419;-48
2022/04/05 14:02:43;;;;;;;11.07;9.97;;;;;;;;;;5052800;28;20424;-48
2022/04/05 14:05:09;;;;;;;11.17;9.97;;;;;;;;;;5052936;28;20433;-49
2022/04/05 14:07:40;;;;;;;10.13;9.20;;;;;;;;;;5052721;28;20454;-49
2022/04/05 14:10:06;;;;;;;11.47;10.33;;;;;;;;;;5052634;28;20487;-49
2022/04/05 14:12:33;;;;;;;10.67;9.53;;;;;;;;;;5052622;28;20426;-48
2022/04/05 14:14:59;;;;;;;16.27;10.33;;;;;;;;;;5052745;28;20404;-50
2022/04/05 14:17:25;;;;;;;12.03;10.80;;;;;;;;;;5052739;28;20461;-49
2022/04/05 14:19:51;;;;;;;12.13;10.60;;;;;;;;;;5052546;28;20411;-50